createdAt,value
2022-09-24T00:01:36.707Z,8.65
2022-09-24T00:04:09.821Z,9.88
2022-09-24T00:06:41.098Z,8.90
2022-09-24T00:09:08.684Z,9.90
2022-09-24T00:11:35.573Z,9.07
2022-09-24T00:14:02.468Z,10.43
2022-09-24T00:16:33.994Z,9.50
2022-09-24T00:19:02.868Z,9.13
2022-09-24T00:21:35.383Z,8.30
2022-09-24T00:24:06.744Z,9.52
2022-09-24T00:26:51.794Z,8.65
2022-09-24T00:29:24.269Z,10.25
2022-09-24T00:31:52.761Z,9.40
2022-09-24T00:34:20.674Z,9.02
2022-09-24T00:36:48.433Z,9.85
2022-09-24T00:39:15.949Z,10.40
2022-09-24T00:41:47.251Z,10.65
2022-09-24T00:44:42.106Z,9.13
2022-09-24T00:47:27.125Z,9.40
2022-09-24T00:50:13.161Z,9.65
2022-09-24T00:52:45.563Z,8.85
2022-09-24T00:55:14.267Z,9.52
2022-09-24T00:57:42.149Z,9.25
2022-09-24T01:00:09.922Z,9.02
2022-09-24T01:02:39.220Z,8.88
2022-09-24T01:05:06.292Z,9.00
2022-09-24T01:07:33.106Z,8.38
2022-09-24T01:09:59.925Z,9.27
2022-09-24T01:12:37.842Z,9.00
2022-09-24T01:15:30.836Z,9.23
2022-09-24T01:18:09.671Z,9.70
2022-09-24T01:21:07.354Z,8.80
2022-09-24T01:24:40.421Z,9.82
2022-09-24T01:29:53.313Z,9.13
2022-09-24T01:32:34.459Z,7.18
2022-09-24T01:35:06.714Z,8.40
2022-09-24T01:37:37.739Z,8.02
2022-09-24T01:40:07.692Z,7.70
2022-09-24T01:42:36.940Z,7.60
2022-09-24T01:45:04.779Z,7.13
2022-09-24T01:47:39.732Z,8.40
2022-09-24T01:50:12.798Z,7.95
2022-09-24T01:53:14.895Z,7.60
2022-09-24T01:55:48.157Z,7.93
2022-09-24T01:58:55.814Z,8.25
2022-09-24T02:01:29.814Z,8.48
2022-09-24T02:03:59.411Z,6.93
2022-09-24T02:06:37.929Z,7.10
2022-09-24T02:09:05.030Z,8.02
2022-09-24T02:11:35.900Z,8.20
2022-09-24T02:14:14.313Z,8.77
2022-09-24T02:16:46.802Z,7.00
2022-09-24T02:19:21.690Z,8.05
2022-09-24T02:21:49.660Z,7.70
2022-09-24T02:24:24.766Z,7.35
2022-09-24T02:26:51.994Z,7.22
2022-09-24T02:29:18.922Z,7.38
2022-09-24T02:31:48.778Z,6.63
2022-09-24T02:34:24.884Z,7.25
2022-09-24T02:37:07.475Z,7.50
2022-09-24T02:39:34.362Z,6.90
2022-09-24T02:42:02.206Z,6.70
2022-09-24T02:44:31.140Z,6.78
2022-09-24T02:46:58.515Z,7.20
2022-09-24T02:49:25.461Z,6.88
2022-09-24T02:51:52.508Z,7.68
2022-09-24T02:54:19.340Z,7.28
2022-09-24T02:56:46.082Z,8.35
2022-09-24T02:59:13.094Z,6.53
2022-09-24T03:01:40.011Z,7.32
2022-09-24T03:04:07.095Z,6.70
2022-09-24T03:06:34.350Z,6.68
2022-09-24T03:09:03.155Z,6.00
2022-09-24T03:11:33.093Z,6.05
2022-09-24T03:14:00.325Z,6.43
2022-09-24T03:16:27.522Z,6.07
2022-09-24T03:18:54.435Z,6.35
2022-09-24T03:21:22.519Z,6.28
2022-09-24T03:23:49.985Z,6.80
2022-09-24T03:26:17.834Z,6.30
2022-09-24T03:28:44.887Z,5.57
2022-09-24T03:31:12.530Z,6.97
2022-09-24T03:33:45.760Z,6.22
2022-09-24T03:36:14.160Z,6.32
2022-09-24T03:38:42.541Z,6.55
2022-09-24T03:41:10.816Z,5.70
2022-09-24T03:43:37.910Z,6.10
2022-09-24T03:46:06.927Z,5.57
2022-09-24T03:48:36.223Z,6.65
2022-09-24T03:51:18.804Z,5.57
2022-09-24T03:53:46.451Z,5.97
2022-09-24T03:56:13.491Z,6.57
2022-09-24T03:58:42.033Z,5.28
2022-09-24T04:01:10.596Z,5.57
2022-09-24T04:03:37.872Z,5.35
2022-09-24T04:06:05.889Z,4.85
2022-09-24T04:08:32.928Z,5.10
2022-09-24T04:11:00.290Z,6.38
2022-09-24T04:13:27.097Z,5.82
2022-09-24T04:15:55.080Z,5.13
2022-09-24T04:18:22.571Z,5.72
2022-09-24T04:20:49.559Z,5.50
2022-09-24T04:23:16.456Z,5.20
2022-09-24T04:25:43.720Z,6.05
2022-09-24T04:28:10.855Z,5.10
2022-09-24T04:30:38.324Z,6.25
2022-09-24T04:33:06.095Z,5.40
2022-09-24T04:35:35.454Z,6.60
2022-09-24T04:38:02.940Z,7.20
2022-09-24T04:40:30.174Z,5.75
2022-09-24T04:42:57.521Z,6.93
2022-09-24T04:45:25.062Z,6.22
2022-09-24T04:47:53.683Z,6.85
2022-09-24T04:50:21.097Z,6.60
2022-09-24T04:52:48.110Z,6.50
2022-09-24T04:55:14.947Z,5.63
2022-09-24T04:57:41.830Z,4.60
2022-09-24T05:00:14.638Z,5.75
2022-09-24T05:02:42.213Z,7.03
2022-09-24T05:05:09.851Z,5.72
2022-09-24T05:07:37.035Z,7.00
2022-09-24T05:10:04.262Z,6.63
2022-09-24T05:12:31.466Z,6.32
2022-09-24T05:14:58.246Z,6.45
2022-09-24T05:17:24.945Z,6.97
2022-09-24T05:19:51.674Z,6.35
2022-09-24T05:22:18.410Z,7.05
2022-09-24T05:24:45.137Z,6.80
2022-09-24T05:27:12.217Z,6.75
2022-09-24T05:29:43.506Z,7.75
2022-09-24T05:32:13.396Z,7.43
2022-09-24T05:34:41.408Z,6.97
2022-09-24T05:37:08.522Z,7.45
2022-09-24T05:39:35.295Z,7.47
2022-09-24T05:42:04.331Z,6.95
2022-09-24T05:44:34.264Z,7.13
2022-09-24T05:47:01.082Z,6.85
2022-09-24T05:49:27.958Z,7.15
2022-09-24T05:51:54.724Z,6.78
2022-09-24T05:54:21.525Z,7.15
2022-09-24T05:56:48.239Z,7.70
2022-09-24T05:59:14.953Z,7.78
2022-09-24T06:01:41.782Z,7.20
2022-09-24T06:04:11.669Z,6.68
2022-09-24T06:06:38.445Z,7.38
2022-09-24T06:09:05.741Z,7.82
2022-09-24T06:11:39.997Z,7.25
2022-09-24T06:14:08.552Z,6.70
2022-09-24T06:16:35.657Z,7.15
2022-09-24T06:19:04.706Z,7.60
2022-09-24T06:21:31.455Z,8.80
2022-09-24T06:23:58.244Z,7.72
2022-09-24T06:26:26.351Z,7.85
2022-09-24T06:28:53.188Z,8.23
2022-09-24T06:31:20.016Z,7.82
2022-09-24T06:33:46.895Z,7.63
2022-09-24T06:36:14.158Z,7.03
2022-09-24T06:38:45.393Z,6.90
2022-09-24T06:41:12.364Z,6.75
2022-09-24T06:43:39.697Z,6.93
2022-09-24T06:46:06.626Z,7.07
2022-09-24T06:48:33.470Z,6.80
2022-09-24T06:51:00.236Z,7.03
2022-09-24T06:53:26.979Z,7.43
2022-09-24T06:55:58.714Z,7.70
2022-09-24T06:58:26.075Z,7.82
2022-09-24T07:01:04.138Z,7.70
2022-09-24T07:03:32.923Z,6.65
2022-09-24T07:06:02.103Z,7.03
2022-09-24T07:08:28.912Z,7.25
2022-09-24T07:10:55.840Z,8.00
2022-09-24T07:13:22.855Z,6.65
2022-09-24T07:15:51.118Z,7.00
2022-09-24T07:18:19.346Z,6.93
2022-09-24T07:20:54.073Z,6.65
2022-09-24T07:23:21.674Z,6.40
2022-09-24T07:25:49.089Z,6.65
2022-09-24T07:28:16.262Z,6.63
2022-09-24T07:30:43.090Z,6.47
2022-09-24T07:33:11.007Z,6.35
2022-09-24T07:35:39.189Z,7.53
2022-09-24T07:38:08.776Z,6.70
2022-09-24T07:40:35.659Z,6.68
2022-09-24T07:43:02.464Z,7.18
2022-09-24T07:45:31.110Z,6.05
2022-09-24T07:48:02.138Z,6.47
2022-09-24T07:50:32.313Z,9.40
2022-09-24T07:53:00.562Z,9.02
2022-09-24T07:55:27.710Z,6.78
2022-09-24T07:57:55.792Z,6.47
2022-09-24T08:00:24.177Z,6.50
2022-09-24T08:02:53.815Z,5.03
2022-09-24T08:05:20.704Z,4.85
2022-09-24T08:07:55.422Z,5.57
2022-09-24T08:10:23.089Z,4.68
2022-09-24T08:12:49.951Z,4.78
2022-09-24T08:15:16.978Z,5.15
2022-09-24T08:17:43.742Z,4.53
2022-09-24T08:20:12.239Z,4.88
2022-09-24T08:22:39.012Z,4.20
2022-09-24T08:25:06.195Z,4.32
2022-09-24T08:27:33.002Z,4.50
2022-09-24T08:30:00.708Z,4.47
2022-09-24T08:32:29.448Z,4.18
2022-09-24T08:34:56.238Z,4.07
2022-09-24T08:37:22.993Z,4.32
2022-09-24T08:39:49.736Z,5.20
2022-09-24T08:42:30.756Z,4.00
2022-09-24T08:45:17.588Z,4.50
2022-09-24T08:47:52.759Z,4.78
2022-09-24T08:50:26.805Z,4.75
2022-09-24T08:53:06.736Z,4.80
2022-09-24T08:55:50.132Z,3.75
2022-09-24T08:58:44.270Z,3.70
2022-09-24T09:01:11.576Z,3.83
2022-09-24T09:04:10.903Z,3.75
2022-09-24T09:07:01.797Z,3.03
2022-09-24T09:09:49.904Z,3.78
2022-09-24T09:12:35.197Z,3.72
2022-09-24T09:15:13.228Z,3.60
2022-09-24T09:17:46.002Z,4.18
2022-09-24T09:20:21.419Z,3.88
2022-09-24T09:22:51.103Z,4.47
2022-09-24T09:25:21.867Z,4.05
2022-09-24T09:28:15.118Z,4.55
2022-09-24T09:31:19.296Z,4.78
2022-09-24T09:34:29.735Z,3.90
2022-09-24T09:37:05.433Z,4.20
2022-09-24T09:40:09.965Z,4.18
2022-09-24T09:42:40.362Z,4.55
2022-09-24T09:45:33.350Z,4.47
2022-09-24T09:48:03.228Z,4.22
2022-09-24T09:50:41.689Z,4.63
2022-09-24T09:53:19.634Z,5.03
2022-09-24T09:56:18.058Z,4.97
2022-09-24T09:58:52.968Z,5.25
2022-09-24T10:01:19.958Z,5.05
2022-09-24T10:03:46.645Z,5.38
2022-09-24T10:06:22.296Z,5.20
2022-09-24T10:08:50.331Z,5.38
2022-09-24T10:11:18.968Z,4.60
2022-09-24T10:13:46.279Z,5.32
2022-09-24T10:16:17.300Z,4.72
2022-09-24T10:18:48.953Z,5.72
2022-09-24T10:21:35.119Z,4.47
2022-09-24T10:24:05.151Z,4.80
2022-09-24T10:26:44.739Z,4.97
2022-09-24T10:29:51.975Z,4.07
2022-09-24T10:32:26.772Z,4.75
2022-09-24T10:35:05.885Z,4.78
2022-09-24T10:37:32.721Z,4.35
2022-09-24T10:40:12.802Z,3.70
2022-09-24T10:42:39.710Z,3.80
2022-09-24T10:45:14.051Z,3.80
2022-09-24T10:48:13.972Z,4.30
2022-09-24T10:51:11.722Z,3.78
2022-09-24T10:54:04.521Z,3.80
2022-09-24T10:56:46.255Z,4.18
2022-09-24T10:59:40.037Z,3.70
2022-09-24T11:02:22.041Z,3.78
2022-09-24T11:07:43.665Z,4.50
2022-09-24T11:10:57.951Z,4.07
2022-09-24T11:13:51.454Z,4.07
2022-09-24T11:16:44.847Z,3.90
2022-09-24T11:19:37.046Z,3.33
2022-09-24T11:24:48.464Z,4.70
2022-09-24T11:27:42.544Z,3.60
2022-09-24T11:30:19.194Z,3.72
2022-09-24T11:33:18.282Z,3.50
2022-09-24T11:36:15.574Z,3.83
2022-09-24T11:38:57.360Z,4.28
2022-09-24T11:42:19.810Z,4.03
2022-09-24T11:45:05.109Z,3.53
2022-09-24T11:47:40.800Z,3.90
2022-09-24T11:50:29.247Z,3.83
2022-09-24T11:53:31.577Z,3.78
2022-09-24T11:58:43.472Z,3.45
2022-09-24T12:01:15.880Z,3.67
2022-09-24T12:03:53.124Z,3.40
2022-09-24T12:06:45.339Z,3.70
2022-09-24T12:14:28.386Z,3.25
2022-09-24T12:17:03.382Z,3.00
2022-09-24T12:20:00.396Z,2.80
2022-09-24T12:22:28.769Z,3.05
2022-09-24T12:24:59.431Z,2.83
2022-09-24T12:27:36.740Z,2.72
2022-09-24T12:30:51.268Z,2.72
2022-09-24T12:33:23.062Z,3.15
2022-09-24T12:36:04.395Z,3.00
2022-09-24T12:38:34.219Z,3.35
2022-09-24T12:41:36.551Z,2.97
2022-09-24T12:46:48.808Z,4.13
2022-09-24T12:49:38.815Z,3.08
2022-09-24T12:52:18.948Z,3.60
2022-09-24T12:54:46.391Z,3.72
2022-09-24T12:57:15.233Z,4.13
2022-09-24T13:00:14.042Z,4.10
2022-09-24T13:02:47.921Z,5.25
2022-09-24T13:05:18.253Z,5.80
2022-09-24T13:07:56.638Z,5.45
2022-09-24T13:10:24.872Z,5.63
2022-09-24T13:12:52.485Z,5.32
2022-09-24T13:15:40.291Z,5.00
2022-09-24T13:18:10.892Z,4.65
2022-09-24T13:20:43.833Z,4.20
2022-09-24T13:23:21.931Z,4.30
2022-09-24T13:26:05.217Z,5.25
2022-09-24T13:28:38.742Z,4.75
2022-09-24T13:31:09.702Z,4.60
2022-09-24T13:33:43.929Z,5.38
2022-09-24T13:36:17.095Z,5.20
2022-09-24T13:39:03.006Z,4.82
2022-09-24T13:41:48.677Z,5.63
2022-09-24T13:44:48.654Z,4.85
2022-09-24T13:47:40.473Z,5.30
2022-09-24T13:50:29.175Z,4.55
2022-09-24T13:53:07.493Z,4.78
2022-09-24T13:55:39.774Z,4.15
2022-09-24T13:58:25.854Z,4.05
2022-09-24T14:00:52.771Z,3.78
2022-09-24T14:03:29.902Z,4.13
2022-09-24T14:05:59.550Z,4.20
2022-09-24T14:08:28.325Z,2.88
2022-09-24T14:11:26.854Z,2.17
2022-09-24T14:13:56.327Z,2.47
2022-09-24T14:16:25.330Z,2.53
2022-09-24T14:19:03.576Z,2.60
2022-09-24T14:21:38.392Z,2.38
2022-09-24T14:24:27.418Z,3.00
2022-09-24T14:27:09.901Z,2.72
2022-09-24T14:30:02.327Z,3.53
2022-09-24T14:32:32.466Z,3.88
2022-09-24T14:35:08.047Z,4.15
2022-09-24T14:37:39.199Z,3.65
2022-09-24T14:40:14.417Z,3.88
2022-09-24T14:42:46.349Z,5.07
2022-09-24T14:47:58.984Z,2.83
2022-09-24T14:50:44.106Z,2.83
2022-09-24T14:53:34.230Z,3.08
2022-09-24T14:56:18.142Z,2.80
2022-09-24T14:58:45.057Z,3.03
2022-09-24T15:01:17.726Z,2.65
2022-09-24T15:03:51.870Z,3.17
2022-09-24T15:06:24.715Z,3.42
2022-09-24T15:09:15.707Z,3.05
2022-09-24T15:11:43.804Z,3.42
2022-09-24T15:14:16.614Z,3.17
2022-09-24T15:16:46.840Z,3.53
2022-09-24T15:19:21.559Z,4.13
2022-09-24T15:21:50.633Z,4.28
2022-09-24T15:24:18.368Z,4.20
2022-09-24T15:26:48.203Z,4.30
2022-09-24T15:29:24.224Z,4.10
2022-09-24T15:31:52.156Z,4.60
2022-09-24T15:34:20.536Z,4.63
2022-09-24T15:36:55.745Z,5.40
2022-09-24T15:39:25.080Z,5.38
2022-09-24T15:41:51.923Z,5.70
2022-09-24T15:44:26.236Z,6.15
2022-09-24T15:46:55.369Z,7.13
2022-09-24T15:52:26.420Z,6.70
2022-09-24T15:54:55.728Z,6.57
2022-09-24T15:57:23.062Z,6.35
2022-09-24T15:59:51.159Z,7.10
2022-09-24T16:02:24.058Z,6.57
2022-09-24T16:04:51.230Z,5.60
2022-09-24T16:07:18.503Z,5.90
2022-09-24T16:09:45.415Z,6.07
2022-09-24T16:12:15.903Z,6.68
2022-09-24T16:14:43.035Z,6.07
2022-09-24T16:17:10.345Z,7.82
2022-09-24T16:19:37.467Z,6.88
2022-09-24T16:22:04.612Z,6.68
2022-09-24T16:24:35.153Z,7.55
2022-09-24T16:27:02.448Z,7.05
2022-09-24T16:30:04.820Z,7.57
2022-09-24T16:34:59.397Z,6.53
2022-09-24T16:37:26.401Z,5.95
2022-09-24T16:39:55.120Z,6.38
2022-09-24T16:42:27.638Z,6.80
2022-09-24T16:44:54.997Z,6.60
2022-09-24T16:47:22.032Z,6.80
2022-09-24T16:49:49.353Z,7.53
2022-09-24T16:52:16.240Z,6.20
2022-09-24T16:54:44.024Z,6.53
2022-09-24T16:57:12.520Z,6.82
2022-09-24T16:59:39.692Z,7.03
2022-09-24T17:02:08.085Z,7.13
2022-09-24T17:04:35.892Z,7.07
2022-09-24T17:07:02.945Z,7.72
2022-09-24T17:09:48.644Z,7.68
2022-09-24T17:12:15.585Z,7.22
2022-09-24T17:14:42.472Z,8.13
2022-09-24T17:17:09.197Z,6.55
2022-09-24T17:19:36.408Z,8.15
2022-09-24T17:22:03.297Z,7.68
2022-09-24T17:24:30.689Z,7.47
2022-09-24T17:26:57.625Z,8.82
2022-09-24T17:29:30.350Z,9.10
2022-09-24T17:31:58.267Z,9.38
2022-09-24T17:34:25.249Z,9.75
2022-09-24T17:36:52.003Z,8.90
2022-09-24T17:39:19.053Z,9.32
2022-09-24T17:41:45.997Z,8.02
2022-09-24T17:44:13.248Z,8.80
2022-09-24T17:46:40.331Z,7.88
2022-09-24T17:49:07.339Z,9.25
2022-09-24T17:51:36.415Z,9.50
2022-09-24T17:54:06.972Z,9.48
2022-09-24T17:56:38.633Z,9.57
2022-09-24T17:59:07.983Z,10.60
2022-09-24T18:01:37.212Z,12.18
2022-09-24T18:04:06.617Z,13.77
2022-09-24T18:06:37.366Z,14.07
2022-09-24T18:09:04.621Z,14.85
2022-09-24T18:11:58.051Z,11.38
2022-09-24T18:14:25.784Z,14.38
2022-09-24T18:16:52.592Z,15.63
2022-09-24T18:19:23.070Z,17.48
2022-09-24T18:21:49.956Z,15.07
2022-09-24T18:24:17.177Z,17.40
2022-09-24T18:26:44.222Z,17.55
2022-09-24T18:29:16.838Z,17.10
2022-09-24T18:31:44.813Z,17.38
2022-09-24T18:34:14.765Z,16.88
2022-09-24T18:36:43.164Z,18.42
2022-09-24T18:39:13.526Z,16.02
2022-09-24T18:41:41.745Z,17.90
2022-09-24T18:44:09.234Z,16.25
2022-09-24T18:46:36.214Z,15.60
2022-09-24T18:49:03.353Z,16.40
2022-09-24T18:51:32.950Z,11.82
2022-09-24T18:54:08.428Z,10.80
2022-09-24T18:56:36.575Z,10.23
2022-09-24T18:59:21.367Z,11.13
2022-09-24T19:01:50.855Z,10.82
2022-09-24T19:04:18.589Z,11.75
2022-09-24T19:06:48.373Z,11.73
2022-09-24T19:09:17.415Z,10.98
2022-09-24T19:11:45.635Z,11.07
2022-09-24T19:14:14.911Z,9.25
2022-09-24T19:16:41.724Z,8.95
2022-09-24T19:19:10.520Z,8.50
2022-09-24T19:21:38.058Z,9.35
2022-09-24T19:24:06.712Z,9.52
2022-09-24T19:26:35.398Z,10.13
2022-09-24T19:29:03.260Z,7.93
2022-09-24T19:31:33.277Z,10.07
2022-09-24T19:34:03.851Z,8.68
2022-09-24T19:36:36.213Z,10.20
2022-09-24T19:39:05.587Z,9.75
2022-09-24T19:41:32.574Z,10.88
2022-09-24T19:44:03.203Z,8.63
2022-09-24T19:46:33.489Z,8.80
2022-09-24T19:49:01.159Z,7.85
2022-09-24T19:51:30.197Z,9.20
2022-09-24T19:54:00.194Z,9.63
2022-09-24T19:56:27.775Z,10.27
2022-09-24T19:58:56.736Z,9.85
2022-09-24T20:01:28.212Z,10.40
2022-09-24T20:03:56.035Z,11.93
2022-09-24T20:06:25.494Z,11.38
2022-09-24T20:08:52.507Z,11.85
2022-09-24T20:11:21.670Z,14.70
2022-09-24T20:13:49.958Z,14.82
2022-09-24T20:16:20.946Z,14.88
2022-09-24T20:18:49.149Z,19.70
2022-09-24T20:21:17.880Z,23.98
2022-09-24T20:23:46.615Z,23.55
2022-09-24T20:26:32.845Z,23.73
2022-09-24T20:28:59.851Z,18.58
2022-09-24T20:31:26.686Z,16.65
2022-09-24T20:34:00.099Z,16.05
2022-09-24T20:36:27.000Z,15.68
2022-09-24T20:38:53.761Z,14.85
2022-09-24T20:41:23.511Z,15.93
2022-09-24T20:43:51.175Z,14.00
2022-09-24T20:46:22.030Z,15.57
2022-09-24T20:48:49.012Z,15.47
2022-09-24T20:51:18.388Z,15.00
2022-09-24T20:53:46.362Z,14.43
2022-09-24T20:56:13.733Z,14.75
2022-09-24T20:58:40.850Z,15.75
2022-09-24T21:01:09.472Z,16.65
2022-09-24T21:03:46.257Z,16.10
2022-09-24T21:06:14.986Z,15.98
2022-09-24T21:08:44.321Z,16.70
2022-09-24T21:11:18.173Z,15.98
2022-09-24T21:13:50.324Z,16.02
2022-09-24T21:16:22.816Z,14.70
2022-09-24T21:18:51.010Z,14.38
2022-09-24T21:21:20.822Z,14.75
2022-09-24T21:23:50.458Z,13.15
2022-09-24T21:26:23.502Z,14.10
2022-09-24T21:28:56.404Z,13.38
2022-09-24T21:31:31.258Z,11.55
2022-09-24T21:33:58.526Z,12.30
2022-09-24T21:36:29.430Z,12.07
2022-09-24T21:39:01.786Z,11.73
2022-09-24T21:41:31.386Z,15.23
2022-09-24T21:43:59.061Z,14.95
2022-09-24T21:46:42.639Z,13.27
2022-09-24T21:49:18.699Z,12.52
2022-09-24T21:51:49.054Z,12.23
2022-09-24T21:54:22.347Z,13.73
2022-09-24T21:56:51.743Z,11.23
2022-09-24T21:59:40.504Z,12.23
2022-09-24T22:02:20.368Z,13.00
2022-09-24T22:04:49.180Z,14.27
2022-09-24T22:07:22.562Z,18.63
2022-09-24T22:09:51.914Z,17.20
2022-09-24T22:12:21.852Z,13.38
2022-09-24T22:15:46.157Z,14.32
2022-09-24T22:21:36.818Z,14.20
2022-09-24T22:24:15.190Z,15.30
2022-09-24T22:32:34.024Z,14.63
2022-09-24T22:35:20.088Z,16.33
2022-09-24T22:37:47.369Z,16.20
2022-09-24T22:40:14.605Z,15.95
2022-09-24T22:42:43.715Z,15.77
2022-09-24T22:45:11.277Z,16.90
2022-09-24T22:47:38.418Z,12.43
2022-09-24T22:50:07.999Z,19.17
2022-09-24T22:52:38.091Z,14.85
2022-09-24T22:55:05.888Z,14.75
2022-09-24T22:57:36.876Z,13.57
2022-09-24T23:25:06.722Z,10.75
2022-09-24T23:41:49.852Z,12.30
2022-09-24T23:44:27.545Z,11.38
2022-09-24T23:46:55.707Z,11.50
2022-09-24T23:59:02.221Z,12.93
